Time;durP1;ratioP1;P1;durP2;ratioP2;P2;SDS_P1;SDS_P2;PMS_P1;PMS_P2;Temp;Humidity;BMP_temperature;BMP_pressure;BME280_temperature;BME280_humidity;BME280_pressure;Samples;Min_cycle;Max_cycle;Signal;HPM_P1;HPM_P2
2022/03/30 00:01:22;;;;;;;23.93;7.30;;;11.70;72.20;;;;;;5033561;28;20965;-74
2022/03/30 00:03:48;;;;;;;43.07;10.77;;;11.80;73.10;;;;;;5048282;28;20930;-74
2022/03/30 00:06:14;;;;;;;38.73;7.80;;;11.90;72.80;;;;;;5032755;28;20302;-75
2022/03/30 00:08:41;;;;;;;27.50;9.23;;;11.90;72.60;;;;;;5033486;28;20193;-74
2022/03/30 00:11:06;;;;;;;45.83;8.63;;;12.00;72.50;;;;;;5031340;28;20177;-75
2022/03/30 00:13:32;;;;;;;41.90;9.33;;;12.00;70.30;;;;;;5047677;28;20514;-74
2022/03/30 00:15:57;;;;;;;37.30;10.53;;;12.10;70.10;;;;;;5047544;28;20200;-74
2022/03/30 00:18:23;;;;;;;60.70;21.57;;;12.20;68.90;;;;;;5030658;28;20221;-74
2022/03/30 00:20:49;;;;;;;41.33;11.67;;;12.20;68.60;;;;;;5031852;28;20602;-75
2022/03/30 00:23:14;;;;;;;36.13;10.20;;;12.30;68.60;;;;;;5032266;28;20257;-76
2022/03/30 00:25:40;;;;;;;33.20;11.10;;;12.30;68.20;;;;;;5031479;28;20216;-74
2022/03/30 00:28:06;;;;;;;62.77;11.70;;;12.30;68.80;;;;;;5046933;28;20192;-74
2022/03/30 00:30:32;;;;;;;30.57;11.53;;;12.30;68.40;;;;;;5014026;28;20281;-73
2022/03/30 00:33:00;;;;;;;34.00;9.90;;;12.40;68.70;;;;;;5047021;28;20480;-74
2022/03/30 00:35:26;;;;;;;47.20;13.17;;;12.40;69.30;;;;;;5031900;28;20656;-73
2022/03/30 00:37:51;;;;;;;25.53;11.63;;;12.40;68.50;;;;;;5032607;28;20440;-73
2022/03/30 00:40:17;;;;;;;38.27;12.37;;;12.40;68.70;;;;;;5030528;28;20638;-74
2022/03/30 00:42:43;;;;;;;40.00;12.10;;;12.40;68.70;;;;;;5031675;28;20612;-73
2022/03/30 00:45:21;;;;;;;38.77;11.00;;;12.40;68.80;;;;;;5029865;28;20194;-74
2022/03/30 00:47:47;;;;;;;44.07;12.23;;;12.40;69.00;;;;;;5031450;28;20425;-75
2022/03/30 00:50:16;;;;;;;34.97;11.47;;;12.40;69.00;;;;;;5029789;28;20448;-75
2022/03/30 00:52:42;;;;;;;42.73;12.80;;;12.30;69.10;;;;;;5031204;28;20524;-75
2022/03/30 00:55:09;;;;;;;43.90;11.93;;;12.30;69.70;;;;;;5031248;28;20420;-74
2022/03/30 00:57:36;;;;;;;33.37;11.90;;;12.30;69.40;;;;;;5029845;28;20426;-74
2022/03/30 01:00:05;;;;;;;28.33;11.17;;;12.30;70.00;;;;;;5031166;28;20509;-75
2022/03/30 01:02:31;;;;;;;34.97;12.03;;;12.20;69.70;;;;;;5029574;28;20446;-74
2022/03/30 01:04:57;;;;;;;32.60;13.03;;;12.30;70.30;;;;;;5046054;28;20429;-74
2022/03/30 01:07:22;;;;;;;43.37;12.60;;;12.30;70.50;;;;;;5029556;28;20480;-74
2022/03/30 01:09:48;;;;;;;40.23;11.60;;;12.20;71.30;;;;;;5031116;28;20925;-74
2022/03/30 01:12:15;;;;;;;47.43;11.47;;;12.10;71.00;;;;;;5029561;28;20219;-74
2022/03/30 01:14:41;;;;;;;39.83;12.73;;;12.20;70.60;;;;;;5031030;28;20280;-74
2022/03/30 01:17:07;;;;;;;38.20;10.33;;;12.10;70.80;;;;;;5031607;28;20529;-75
2022/03/30 01:19:34;;;;;;;41.63;11.50;;;12.10;69.80;;;;;;5046147;28;20705;-73
2022/03/30 01:22:03;;;;;;;39.83;10.07;;;12.20;69.80;;;;;;5029373;28;20659;-73
2022/03/30 01:24:28;;;;;;;51.07;10.67;;;12.10;70.50;;;;;;5029563;28;20431;-73
2022/03/30 01:26:54;;;;;;;34.13;10.20;;;12.20;70.20;;;;;;5030936;28;20535;-73
2022/03/30 01:34:49;;;;;;;44.73;13.87;;;12.00;73.70;;;;;;5030300;28;20448;-74
2022/03/30 01:37:15;;;;;;;41.37;14.07;;;11.90;75.20;;;;;;5029554;28;20970;-74
2022/03/30 01:39:41;;;;;;;31.27;14.73;;;12.10;77.00;;;;;;5029358;28;20223;-74
2022/03/30 01:42:08;;;;;;;31.40;15.20;;;11.80;77.40;;;;;;5030462;28;20448;-76
2022/03/30 01:44:35;;;;;;;30.73;15.10;;;11.80;78.00;;;;;;5029326;28;20435;-74
2022/03/30 01:47:04;;;;;;;32.43;12.93;;;11.80;77.90;;;;;;5030338;28;20468;-75
2022/03/30 01:49:30;;;;;;;42.33;14.43;;;11.90;77.60;;;;;;5045975;28;20564;-75
2022/03/30 01:51:58;;;;;;;42.23;16.23;;;11.80;78.00;;;;;;5045394;28;21137;-75
2022/03/30 01:54:27;;;;;;;37.27;15.33;;;11.70;79.40;;;;;;5030311;28;20214;-75
2022/03/30 01:56:54;;;;;;;45.47;15.47;;;11.70;79.90;;;;;;5030390;28;20945;-75
2022/03/30 01:59:20;;;;;;;39.00;15.50;;;11.70;80.70;;;;;;5030081;28;20417;-74
2022/03/30 02:01:46;;;;;;;37.17;17.07;;;11.70;80.30;;;;;;5045032;28;20449;-76
2022/03/30 02:04:13;;;;;;;35.10;16.77;;;11.70;80.60;;;;;;5030324;28;20426;-75
2022/03/30 02:06:39;;;;;;;39.33;15.37;;;11.70;81.20;;;;;;5029941;28;20581;-75
2022/03/30 02:09:05;;;;;;;41.60;18.30;;;11.70;82.20;;;;;;5030303;28;20946;-76
2022/03/30 02:11:31;;;;;;;36.33;16.70;;;11.80;82.50;;;;;;5028696;28;20778;-76
2022/03/30 02:13:57;;;;;;;39.13;17.23;;;11.80;83.50;;;;;;5030433;28;20515;-77
2022/03/30 02:16:24;;;;;;;40.63;17.17;;;11.70;82.80;;;;;;5030093;28;20429;-75
2022/03/30 02:18:49;;;;;;;36.07;17.13;;;11.70;83.10;;;;;;5028574;28;20448;-74
2022/03/30 02:21:15;;;;;;;38.50;17.07;;;11.70;83.70;;;;;;5045188;28;20420;-75
2022/03/30 02:23:42;;;;;;;37.23;17.10;;;11.60;84.00;;;;;;5030300;28;20219;-75
2022/03/30 02:26:08;;;;;;;36.03;17.57;;;11.40;83.70;;;;;;5030298;28;20978;-75
2022/03/30 02:28:34;;;;;;;37.07;16.27;;;11.50;84.50;;;;;;5029031;28;20463;-76
2022/03/30 02:31:00;;;;;;;31.13;16.47;;;11.50;84.80;;;;;;5028835;28;20460;-75
2022/03/30 02:33:27;;;;;;;35.10;16.30;;;11.50;85.80;;;;;;5030188;28;20504;-75
2022/03/30 02:35:53;;;;;;;33.57;15.47;;;11.50;85.90;;;;;;5045392;28;20439;-75
2022/03/30 02:38:19;;;;;;;47.27;16.90;;;11.50;87.50;;;;;;5028950;28;20488;-75
2022/03/30 02:40:45;;;;;;;39.57;15.40;;;11.40;87.30;;;;;;5030095;28;20433;-75
2022/03/30 02:43:10;;;;;;;35.43;14.50;;;11.40;86.90;;;;;;5045007;28;20515;-74
2022/03/30 02:45:38;;;;;;;47.50;15.77;;;11.40;86.20;;;;;;5029921;28;20216;-74
2022/03/30 02:48:20;;;;;;;32.70;12.93;;;11.40;85.90;;;;;;5030183;28;20518;-75
2022/03/30 02:50:47;;;;;;;45.03;14.10;;;11.40;85.30;;;;;;5029931;28;20421;-77
2022/03/30 02:53:17;;;;;;;39.07;15.83;;;11.30;86.70;;;;;;5028904;28;20828;-76
2022/03/30 02:55:43;;;;;;;34.80;15.30;;;11.30;88.80;;;;;;5030451;28;20426;-76
2022/03/30 02:58:10;;;;;;;40.33;16.17;;;11.20;90.30;;;;;;5029634;28;20511;-76
2022/03/30 03:00:39;;;;;;;28.93;14.97;;;11.10;90.30;;;;;;5029587;28;20436;-76
2022/03/30 03:03:09;;;;;;;36.30;14.13;;;11.20;90.30;;;;;;5028119;28;20564;-76
2022/03/30 03:05:36;;;;;;;36.37;14.67;;;11.10;90.10;;;;;;5029298;28;20970;-76
2022/03/30 03:08:05;;;;;;;41.13;16.27;;;11.10;90.60;;;;;;5029613;28;20808;-75
2022/03/30 03:10:32;;;;;;;33.20;15.07;;;11.10;90.20;;;;;;5027918;28;20910;-75
2022/03/30 03:12:57;;;;;;;31.73;12.80;;;11.20;89.80;;;;;;5026968;28;20451;-76
2022/03/30 03:15:24;;;;;;;41.50;13.70;;;11.20;88.10;;;;;;5044589;28;20487;-75
2022/03/30 03:17:51;;;;;;;29.40;13.37;;;11.30;87.90;;;;;;5029205;28;20191;-75
2022/03/30 03:20:16;;;;;;;37.10;13.90;;;11.30;90.20;;;;;;5029655;28;20425;-75
2022/03/30 03:22:44;;;;;;;40.83;13.10;;;11.30;90.10;;;;;;5044555;28;20469;-75
2022/03/30 03:25:11;;;;;;;33.33;12.27;;;11.40;85.80;;;;;;5011612;28;20436;-75
2022/03/30 03:27:37;;;;;;;29.43;11.23;;;11.50;86.00;;;;;;5044743;28;20965;-75
2022/03/30 03:30:07;;;;;;;30.67;10.83;;;11.50;84.10;;;;;;5029585;28;20416;-74
2022/03/30 03:32:33;;;;;;;37.53;10.77;;;11.60;85.40;;;;;;5027589;28;20506;-75
2022/03/30 03:34:58;;;;;;;27.97;11.73;;;11.70;84.20;;;;;;5027903;28;20429;-75
2022/03/30 03:37:24;;;;;;;38.93;11.70;;;11.70;84.70;;;;;;5029180;28;20179;-74
2022/03/30 03:39:50;;;;;;;51.77;11.33;;;11.70;82.60;;;;;;5011551;28;20428;-75
2022/03/30 03:42:16;;;;;;;46.80;9.40;;;11.70;82.80;;;;;;5027932;28;20219;-75
2022/03/30 03:44:42;;;;;;;35.87;10.87;;;11.70;81.60;;;;;;5027940;28;20669;-75
2022/03/30 03:47:09;;;;;;;35.93;9.90;;;11.70;82.00;;;;;;5027776;28;20463;-75
2022/03/30 03:49:35;;;;;;;29.00;8.93;;;11.80;82.30;;;;;;5029284;28;20457;-75
2022/03/30 03:52:01;;;;;;;46.97;9.40;;;11.80;81.90;;;;;;5029517;28;20785;-77
2022/03/30 03:54:27;;;;;;;41.50;9.57;;;11.80;81.40;;;;;;5044259;28;20441;-76
2022/03/30 03:56:53;;;;;;;34.93;8.23;;;11.70;81.00;;;;;;5028982;28;20420;-75
2022/03/30 03:59:19;;;;;;;39.23;10.17;;;11.70;82.10;;;;;;5044628;28;20681;-75
2022/03/30 04:01:44;;;;;;;39.60;8.33;;;11.70;82.40;;;;;;5028851;28;20628;-76
2022/03/30 04:04:13;;;;;;;45.57;9.90;;;11.70;83.40;;;;;;5029568;28;20269;-76
2022/03/30 04:06:38;;;;;;;35.20;10.63;;;11.70;83.40;;;;;;5029577;28;20219;-76
2022/03/30 04:09:04;;;;;;;49.77;10.27;;;11.70;85.10;;;;;;5029436;28;20505;-75
2022/03/30 04:11:30;;;;;;;40.77;9.17;;;11.60;84.30;;;;;;5028544;28;20188;-75
2022/03/30 04:13:56;;;;;;;41.60;9.20;;;11.70;86.00;;;;;;5046838;28;20425;-75
2022/03/30 04:16:21;;;;;;;32.60;8.70;;;11.50;87.30;;;;;;5029718;28;20195;-75
2022/03/30 04:18:47;;;;;;;45.67;10.40;;;11.40;88.20;;;;;;5029218;28;20202;-76
2022/03/30 04:21:13;;;;;;;32.03;9.00;;;11.30;90.60;;;;;;5065409;28;20260;-77
2022/03/30 04:23:38;;;;;;;41.93;10.50;;;11.20;90.20;;;;;;5067135;28;20202;-77
2022/03/30 04:26:04;;;;;;;33.33;9.50;;;11.20;90.90;;;;;;5054065;28;20250;-77
2022/03/30 04:28:30;;;;;;;48.40;11.27;;;11.10;92.10;;;;;;5052719;28;20192;-77
2022/03/30 04:30:56;;;;;;;29.70;9.70;;;11.00;93.30;;;;;;5034718;28;20188;-75
2022/03/30 04:33:22;;;;;;;32.10;9.80;;;10.90;95.30;;;;;;5036008;28;20468;-75
2022/03/30 04:35:48;;;;;;;37.50;9.77;;;10.90;95.30;;;;;;5031295;28;20420;-76
2022/03/30 04:38:14;;;;;;;34.40;9.43;;;10.90;97.90;;;;;;5030083;28;20201;-76
2022/03/30 04:40:40;;;;;;;30.13;9.20;;;10.80;99.10;;;;;;5030994;28;20660;-75
2022/03/30 04:43:07;;;;;;;38.20;8.87;;;10.70;99.90;;;;;;5029607;28;20447;-76
2022/03/30 04:45:33;;;;;;;45.33;9.00;;;10.70;99.90;;;;;;5030884;28;20924;-77
2022/03/30 04:47:59;;;;;;;58.10;10.43;;;10.60;99.90;;;;;;5030828;28;20796;-76
2022/03/30 04:50:25;;;;;;;48.07;10.57;;;10.60;99.90;;;;;;5030538;28;20419;-75
2022/03/30 04:52:52;;;;;;;27.03;9.37;;;10.40;99.90;;;;;;5030084;28;20443;-76
2022/03/30 04:55:19;;;;;;;35.20;10.00;;;10.40;99.90;;;;;;5030535;28;20429;-75
2022/03/30 04:57:45;;;;;;;29.60;9.37;;;10.30;99.90;;;;;;5030395;28;21094;-75
2022/03/30 05:00:12;;;;;;;42.20;10.83;;;10.30;99.90;;;;;;5030279;28;20846;-76
2022/03/30 05:02:38;;;;;;;41.43;8.70;;;10.20;99.90;;;;;;5029826;28;20448;-75
2022/03/30 05:05:05;;;;;;;32.00;10.40;;;10.20;99.90;;;;;;5045113;28;20455;-75
2022/03/30 05:07:31;;;;;;;40.73;10.37;;;10.20;99.90;;;;;;5028434;28;20464;-76
2022/03/30 05:09:57;;;;;;;37.97;11.80;;;10.10;99.90;;;;;;5028581;28;20430;-75
2022/03/30 05:12:24;;;;;;;38.50;12.00;;;10.10;99.90;;;;;;5029965;28;20196;-75
2022/03/30 05:14:49;;;;;;;42.10;10.43;;;10.00;99.90;;;;;;5028421;28;20730;-75
2022/03/30 05:17:16;;;;;;;44.13;10.80;;;9.80;99.90;;;;;;5028500;28;20519;-78
2022/03/30 05:19:44;;;;;;;29.90;10.80;;;9.80;99.90;;;;;;5029643;28;20434;-75
2022/03/30 05:22:10;;;;;;;43.40;11.30;;;9.70;99.90;;;;;;5028089;28;20469;-76
2022/03/30 05:24:36;;;;;;;31.73;10.20;;;9.50;99.90;;;;;;5029690;28;20843;-75
2022/03/30 05:27:02;;;;;;;39.17;11.40;;;9.30;99.90;;;;;;5028101;28;20524;-75
2022/03/30 05:29:27;;;;;;;28.50;10.17;;;9.30;99.90;;;;;;5029632;28;20223;-75
2022/03/30 05:31:53;;;;;;;27.43;9.70;;;9.20;99.90;;;;;;5044492;28;20929;-76
2022/03/30 05:34:19;;;;;;;40.23;10.90;;;9.30;99.90;;;;;;5029451;28;20183;-74
2022/03/30 05:36:44;;;;;;;38.37;11.30;;;9.10;99.90;;;;;;5027361;28;20735;-75
2022/03/30 05:39:10;;;;;;;44.90;11.70;;;9.00;99.90;;;;;;5029384;28;20654;-74
2022/03/30 05:41:35;;;;;;;39.27;10.90;;;9.10;99.90;;;;;;5029786;28;20203;-72
2022/03/30 05:44:02;;;;;;;38.23;11.17;;;9.00;99.90;;;;;;5029547;28;20204;-73
2022/03/30 05:46:28;;;;;;;47.13;11.60;;;9.00;99.90;;;;;;5028067;28;20215;-74
2022/03/30 05:48:54;;;;;;;38.20;15.27;;;9.10;99.90;;;;;;5029426;28;20428;-75
2022/03/30 05:51:20;;;;;;;33.40;12.13;;;9.10;99.90;;;;;;5027773;28;20431;-75
2022/03/30 05:53:47;;;;;;;44.60;12.07;;;9.10;99.90;;;;;;5027747;28;20427;-72
2022/03/30 05:56:13;;;;;;;43.77;12.03;;;9.10;99.90;;;;;;5011348;28;20292;-73
2022/03/30 05:58:39;;;;;;;32.43;11.30;;;9.10;99.90;;;;;;5028814;28;20438;-72
2022/03/30 06:01:06;;;;;;;36.63;14.17;;;9.00;99.90;;;;;;5028832;28;20418;-72
2022/03/30 06:03:37;;;;;;;36.43;12.23;;;9.00;99.90;;;;;;5028756;28;20444;-75
2022/03/30 06:06:06;;;;;;;36.93;12.10;;;9.00;99.90;;;;;;5026873;28;20463;-74
2022/03/30 06:08:32;;;;;;;35.20;11.63;;;9.10;99.90;;;;;;5028480;28;20407;-73
2022/03/30 06:10:58;;;;;;;35.17;12.70;;;9.10;99.90;;;;;;5027271;28;21114;-72
2022/03/30 06:13:24;;;;;;;38.70;11.97;;;9.20;99.90;;;;;;5043626;28;20550;-72
2022/03/30 06:15:50;;;;;;;41.83;12.70;;;9.10;99.90;;;;;;5010330;28;20427;-72
2022/03/30 06:18:15;;;;;;;26.93;11.40;;;9.20;99.90;;;;;;5043262;28;20708;-72
2022/03/30 06:20:41;;;;;;;39.63;12.53;;;9.20;99.90;;;;;;5028259;28;20184;-72
2022/03/30 06:23:08;;;;;;;28.30;11.00;;;9.20;99.90;;;;;;5028181;28;20223;-72
2022/03/30 06:25:34;;;;;;;35.33;12.00;;;9.20;99.90;;;;;;5028005;28;20415;-72
2022/03/30 06:28:00;;;;;;;32.17;13.03;;;9.20;99.90;;;;;;5028269;28;20860;-72
2022/03/30 06:30:26;;;;;;;41.60;14.07;;;9.20;99.90;;;;;;5028056;28;20421;-72
2022/03/30 06:32:53;;;;;;;33.60;13.83;;;9.20;99.90;;;;;;5026333;28;21140;-71
2022/03/30 06:35:19;;;;;;;37.20;13.20;;;9.40;99.90;;;;;;5027868;28;20431;-72
2022/03/30 06:37:46;;;;;;;31.17;11.60;;;9.30;99.90;;;;;;5027977;28;20416;-72
2022/03/30 06:40:14;;;;;;;34.87;11.40;;;9.20;99.90;;;;;;5026346;28;20439;-72
2022/03/30 06:42:41;;;;;;;33.57;12.03;;;9.30;99.90;;;;;;5026488;28;20537;-71
2022/03/30 06:45:08;;;;;;;43.83;11.57;;;9.40;99.90;;;;;;5027661;28;20866;-72
2022/03/30 06:47:34;;;;;;;31.97;12.47;;;9.50;99.90;;;;;;5027716;28;20458;-72
2022/03/30 06:50:00;;;;;;;28.33;11.77;;;9.50;99.90;;;;;;5027733;28;20462;-73
2022/03/30 06:52:26;;;;;;;38.40;12.47;;;9.50;99.90;;;;;;5027676;28;20910;-72
2022/03/30 06:54:52;;;;;;;22.47;11.63;;;9.50;99.90;;;;;;5027756;28;20181;-72
2022/03/30 06:57:20;;;;;;;101.80;47.93;;;9.60;99.90;;;;;;5042982;28;20446;-71
2022/03/30 06:59:46;;;;;;;49.67;15.90;;;9.50;99.90;;;;;;5027842;28;20436;-74
2022/03/30 07:02:12;;;;;;;39.03;12.63;;;9.50;99.90;;;;;;5027352;28;21006;-73
2022/03/30 07:04:38;;;;;;;41.07;12.53;;;9.50;99.90;;;;;;5027371;28;20419;-73
2022/03/30 07:12:33;;;;;;;40.93;11.23;;;9.30;99.90;;;;;;5027772;28;20444;-74
2022/03/30 07:15:00;;;;;;;28.47;10.70;;;9.40;99.90;;;;;;5042923;28;21020;-73
2022/03/30 07:17:27;;;;;;;28.27;11.27;;;9.30;99.90;;;;;;5026570;28;20199;-74
2022/03/30 07:19:52;;;;;;;37.93;11.00;;;9.20;99.90;;;;;;5043246;28;20423;-73
2022/03/30 07:22:18;;;;;;;36.93;10.10;;;9.30;99.90;;;;;;5026353;28;20443;-73
2022/03/30 07:24:44;;;;;;;38.13;11.33;;;9.20;99.90;;;;;;5026399;28;20193;-73
2022/03/30 07:27:10;;;;;;;40.03;10.80;;;9.30;99.90;;;;;;5028023;28;20208;-72
2022/03/30 07:29:36;;;;;;;27.83;10.20;;;9.30;99.90;;;;;;5028091;28;20224;-72
2022/03/30 07:32:02;;;;;;;34.50;10.33;;;9.30;99.90;;;;;;5027934;28;20447;-72
2022/03/30 07:34:28;;;;;;;27.43;9.43;;;9.20;99.90;;;;;;5028070;28;20250;-73
2022/03/30 07:36:54;;;;;;;30.47;8.97;;;9.10;99.90;;;;;;5027862;28;20427;-73
2022/03/30 07:39:20;;;;;;;27.97;10.50;;;9.10;99.90;;;;;;5026343;28;20950;-72
2022/03/30 07:41:46;;;;;;;33.10;11.50;;;9.20;99.90;;;;;;5026765;28;20439;-73
2022/03/30 07:44:12;;;;;;;37.70;11.00;;;9.20;99.90;;;;;;5043416;28;20508;-72
2022/03/30 07:46:37;;;;;;;41.47;12.83;;;9.10;99.90;;;;;;5028378;28;20270;-73
2022/03/30 07:49:03;;;;;;;20.80;9.33;;;9.20;99.90;;;;;;5043594;28;20388;-73
2022/03/30 07:51:29;;;;;;;24.10;10.67;;;9.20;99.90;;;;;;5043473;28;20176;-73
2022/03/30 07:53:55;;;;;;;32.07;10.17;;;9.10;99.90;;;;;;5026579;28;20649;-73
2022/03/30 07:56:21;;;;;;;33.83;10.47;;;9.20;99.90;;;;;;5027935;28;20427;-74
2022/03/30 07:58:48;;;;;;;34.80;11.70;;;9.10;99.90;;;;;;5029332;28;20277;-73
2022/03/30 08:01:16;;;;;;;30.37;11.63;;;9.10;99.90;;;;;;5032012;28;20457;-73
2022/03/30 08:03:44;;;;;;;28.10;8.27;;;9.20;99.90;;;;;;5031588;28;20432;-73
2022/03/30 08:06:10;;;;;;;26.70;9.47;;;9.30;99.90;;;;;;5031445;28;20714;-74
2022/03/30 08:08:36;;;;;;;25.53;7.83;;;9.20;99.90;;;;;;5046584;28;20428;-73
2022/03/30 08:11:02;;;;;;;22.33;9.00;;;9.30;99.90;;;;;;5029874;28;20887;-73
2022/03/30 08:13:27;;;;;;;26.47;10.60;;;9.50;99.90;;;;;;5031274;28;20243;-73
2022/03/30 08:15:53;;;;;;;36.57;10.60;;;9.50;99.90;;;;;;5029736;28;20307;-73
2022/03/30 08:18:19;;;;;;;42.90;9.40;;;9.50;99.90;;;;;;5029862;28;20220;-72
2022/03/30 08:23:28;;;;;;;23.87;8.40;;;9.60;99.90;;;;;;5032053;28;20215;-72
2022/03/30 08:25:54;;;;;;;26.27;9.23;;;9.60;99.90;;;;;;5032070;28;20464;-73
2022/03/30 08:28:20;;;;;;;29.47;8.77;;;9.80;99.90;;;;;;5033299;28;20725;-73
2022/03/30 08:30:48;;;;;;;31.20;9.10;;;9.80;99.90;;;;;;5044110;28;20245;-72
2022/03/30 08:33:16;;;;;;;27.57;8.17;;;9.80;99.90;;;;;;5057041;28;20298;-71
2022/03/30 08:35:42;;;;;;;31.40;9.27;;;9.80;99.90;;;;;;5054405;28;20413;-72
2022/03/30 08:38:08;;;;;;;19.57;7.90;;;9.70;99.90;;;;;;5053485;28;20408;-71
2022/03/30 08:40:35;;;;;;;24.40;8.40;;;9.70;99.90;;;;;;5055913;28;20425;-72
2022/03/30 08:43:00;;;;;;;28.17;8.37;;;9.80;99.90;;;;;;5051394;28;20509;-72
2022/03/30 08:45:26;;;;;;;32.03;9.83;;;9.70;99.90;;;;;;5046577;28;20425;-73
2022/03/30 08:47:52;;;;;;;24.97;8.80;;;9.70;99.90;;;;;;5032699;28;20177;-73
2022/03/30 08:50:19;;;;;;;33.77;8.27;;;9.70;99.90;;;;;;5032062;28;20284;-73
2022/03/30 08:52:49;;;;;;;24.77;7.93;;;9.80;99.90;;;;;;5031634;28;20797;-73
2022/03/30 08:55:15;;;;;;;29.47;9.47;;;9.80;99.90;;;;;;5029976;28;20435;-73
2022/03/30 08:57:41;;;;;;;37.83;9.10;;;9.90;99.90;;;;;;5030792;28;20519;-73
2022/03/30 09:00:11;;;;;;;34.00;10.70;;;9.80;99.90;;;;;;5045795;28;20511;-72
2022/03/30 09:02:40;;;;;;;37.47;9.13;;;9.90;99.90;;;;;;5013022;28;20630;-72
2022/03/30 09:05:21;;;;;;;24.40;8.20;;;9.90;99.90;;;;;;5030859;28;20430;-73
2022/03/30 09:07:50;;;;;;;35.30;8.03;;;10.00;99.90;;;;;;5030151;28;20473;-72
2022/03/30 09:10:19;;;;;;;38.33;8.23;;;10.00;99.90;;;;;;5027839;28;20436;-73
2022/03/30 09:12:47;;;;;;;31.63;8.63;;;10.10;99.90;;;;;;5045315;28;20447;-72
2022/03/30 09:15:13;;;;;;;26.17;7.53;;;10.20;99.90;;;;;;5030122;28;20457;-73
2022/03/30 09:17:42;;;;;;;22.33;8.07;;;10.20;99.90;;;;;;5030254;28;20987;-72
2022/03/30 09:20:23;;;;;;;26.90;7.60;;;10.30;99.90;;;;;;5028886;28;20526;-72
2022/03/30 09:22:54;;;;;;;33.87;7.53;;;10.30;99.90;;;;;;5028792;28;20832;-72
2022/03/30 09:25:23;;;;;;;30.23;7.87;;;10.40;99.90;;;;;;5030147;28;20455;-72
2022/03/30 09:27:52;;;;;;;31.97;9.10;;;10.50;99.90;;;;;;5029947;28;20580;-72
2022/03/30 09:30:19;;;;;;;35.23;9.93;;;10.50;99.90;;;;;;5029932;28;20421;-72
2022/03/30 09:32:46;;;;;;;36.70;14.93;;;10.60;99.90;;;;;;5044904;28;20459;-73
2022/03/30 09:35:24;;;;;;;36.27;16.13;;;10.60;99.90;;;;;;5028120;28;20452;-72
2022/03/30 09:38:06;;;;;;;39.83;15.20;;;10.60;99.90;;;;;;5029796;28;20515;-73
2022/03/30 09:40:43;;;;;;;47.27;13.23;;;10.60;99.90;;;;;;5045078;28;20428;-73
2022/03/30 09:43:31;;;;;;;55.17;20.40;;;10.60;99.90;;;;;;5028297;28;21221;-73
2022/03/30 09:46:03;;;;;;;58.33;20.13;;;10.70;99.90;;;;;;5029641;28;20505;-72
2022/03/30 09:48:30;;;;;;;64.07;27.40;;;10.70;99.90;;;;;;5029349;28;20489;-72
2022/03/30 09:50:58;;;;;;;41.53;16.23;;;10.70;99.90;;;;;;5027818;28;20797;-73
2022/03/30 09:53:28;;;;;;;34.57;13.37;;;10.70;99.90;;;;;;5027586;28;20434;-73
2022/03/30 09:55:59;;;;;;;37.00;14.20;;;10.70;99.90;;;;;;5044070;28;20427;-72
2022/03/30 09:58:34;;;;;;;42.63;16.00;;;10.70;99.90;;;;;;5029254;28;20520;-73
2022/03/30 10:01:19;;;;;;;29.60;15.37;;;10.70;99.90;;;;;;5027789;28;20425;-73
2022/03/30 10:03:51;;;;;;;48.07;19.70;;;10.70;99.90;;;;;;5044040;28;20437;-72
2022/03/30 10:06:31;;;;;;;43.93;17.73;;;10.80;99.90;;;;;;5028760;28;21072;-73
2022/03/30 10:08:57;;;;;;;51.57;18.27;;;10.70;99.90;;;;;;5028723;28;20506;-73
2022/03/30 10:11:27;;;;;;;43.13;19.43;;;10.70;99.90;;;;;;5026888;28;20504;-73
2022/03/30 10:13:55;;;;;;;38.43;18.70;;;10.70;99.90;;;;;;5026886;28;20202;-73
2022/03/30 10:16:23;;;;;;;39.17;18.53;;;10.60;99.90;;;;;;5026508;28;20537;-73
2022/03/30 10:18:51;;;;;;;49.23;22.20;;;10.60;99.90;;;;;;5028285;28;20434;-73
2022/03/30 10:21:24;;;;;;;42.50;19.10;;;10.60;99.90;;;;;;5027738;28;20420;-73
2022/03/30 10:24:12;;;;;;;47.27;18.07;;;10.60;99.90;;;;;;5028096;28;21059;-73
2022/03/30 10:26:50;;;;;;;44.67;17.10;;;10.60;99.90;;;;;;5027860;28;20460;-73
2022/03/30 10:29:18;;;;;;;42.87;18.83;;;10.60;99.90;;;;;;5027950;28;20424;-73
2022/03/30 10:32:15;;;;;;;48.73;18.50;;;10.60;99.90;;;;;;5010084;28;20814;-73
2022/03/30 10:34:53;;;;;;;30.17;13.63;;;10.50;99.90;;;;;;5027922;28;20928;-71
2022/03/30 10:37:57;;;;;;;51.27;14.30;;;10.50;99.90;;;;;;5027893;28;20407;-71
2022/03/30 10:40:25;;;;;;;40.87;16.97;;;10.60;99.90;;;;;;5024379;28;20429;-72
2022/03/30 10:42:59;;;;;;;35.63;15.70;;;10.60;99.90;;;;;;5026048;28;20476;-72
2022/03/30 10:45:44;;;;;;;41.40;16.13;;;10.60;99.90;;;;;;5026293;28;20789;-72
2022/03/30 10:48:19;;;;;;;30.93;15.40;;;10.60;99.90;;;;;;5042714;28;20460;-72
2022/03/30 10:50:57;;;;;;;25.83;11.27;;;10.60;99.90;;;;;;5027715;28;20425;-71
2022/03/30 10:53:32;;;;;;;32.00;12.17;;;10.70;99.90;;;;;;5027498;28;21017;-71
2022/03/30 10:56:18;;;;;;;38.53;12.23;;;10.80;99.90;;;;;;5027601;28;20401;-72
2022/03/30 10:58:53;;;;;;;41.00;12.37;;;10.80;99.90;;;;;;5023049;28;20837;-72
2022/03/30 11:01:25;;;;;;;26.57;11.10;;;10.90;99.90;;;;;;5042420;28;20422;-71
2022/03/30 11:03:57;;;;;;;32.60;11.07;;;11.00;99.90;;;;;;5027412;28;20537;-71
2022/03/30 11:06:23;;;;;;;27.80;9.47;;;11.00;99.90;;;;;;5027235;28;21013;-71
2022/03/30 11:08:50;;;;;;;23.50;9.03;;;11.10;99.90;;;;;;5027407;28;20433;-71
2022/03/30 11:11:35;;;;;;;19.40;9.50;;;11.20;99.90;;;;;;5027521;28;20787;-71
2022/03/30 11:14:23;;;;;;;37.03;10.57;;;11.20;99.90;;;;;;5025939;28;20413;-71
2022/03/30 11:16:51;;;;;;;22.33;8.63;;;11.40;99.90;;;;;;5042178;28;20424;-71
2022/03/30 11:19:17;;;;;;;20.00;9.33;;;11.70;99.90;;;;;;5027040;28;20430;-72
2022/03/30 11:22:06;;;;;;;30.67;8.73;;;12.00;99.90;;;;;;5026948;28;21301;-71
2022/03/30 11:24:32;;;;;;;20.03;8.73;;;12.30;99.90;;;;;;5027304;28;20424;-72
2022/03/30 11:26:58;;;;;;;22.70;9.33;;;12.60;99.90;;;;;;5025529;28;20523;-72
2022/03/30 11:29:42;;;;;;;20.43;8.57;;;13.00;99.90;;;;;;5027062;28;20887;-72
2022/03/30 11:32:26;;;;;;;22.50;8.97;;;13.30;99.90;;;;;;5026966;28;20274;-71
2022/03/30 11:34:52;;;;;;;29.63;10.13;;;13.20;99.90;;;;;;5026476;28;20424;-72
2022/03/30 11:37:37;;;;;;;31.63;10.23;;;13.00;99.90;;;;;;5026870;28;20564;-71
2022/03/30 11:40:25;;;;;;;28.27;9.67;;;12.90;99.90;;;;;;5027162;28;20418;-72
2022/03/30 11:42:53;;;;;;;27.93;9.33;;;13.00;99.90;;;;;;5026966;28;20496;-72
2022/03/30 11:45:22;;;;;;;21.80;9.30;;;12.80;99.90;;;;;;5027195;28;20420;-72
2022/03/30 11:47:52;;;;;;;23.90;9.70;;;12.80;99.90;;;;;;5027086;28;20488;-71
2022/03/30 11:50:34;;;;;;;28.00;9.70;;;13.00;99.90;;;;;;5027205;28;20419;-72
2022/03/30 11:53:21;;;;;;;19.83;8.90;;;13.50;99.90;;;;;;5041872;28;20486;-72
2022/03/30 11:55:54;;;;;;;23.10;8.60;;;13.80;99.90;;;;;;5025180;28;20469;-73
2022/03/30 11:58:23;;;;;;;24.70;7.73;;;13.70;99.90;;;;;;5026888;28;20529;-72
2022/03/30 12:00:48;;;;;;;18.87;8.23;;;13.70;99.90;;;;;;5026915;28;20422;-71
2022/03/30 12:03:14;;;;;;;20.57;8.33;;;13.60;99.90;;;;;;5041903;28;20583;-72
2022/03/30 12:05:40;;;;;;;16.23;7.67;;;13.60;99.90;;;;;;5026740;28;20230;-71
2022/03/30 12:08:06;;;;;;;21.40;7.30;;;13.60;99.90;;;;;;5042337;28;20597;-72
2022/03/30 12:10:32;;;;;;;24.80;8.27;;;13.30;99.90;;;;;;5041922;28;20442;-72
2022/03/30 12:13:00;;;;;;;20.10;9.40;;;13.10;99.90;;;;;;5042026;28;20788;-71
2022/03/30 12:15:26;;;;;;;16.90;7.63;;;13.00;99.90;;;;;;5026908;28;20186;-72
2022/03/30 12:18:00;;;;;;;16.27;7.80;;;13.00;99.90;;;;;;5027084;28;20421;-72
2022/03/30 12:20:29;;;;;;;19.93;8.20;;;13.20;99.90;;;;;;5041924;28;20471;-72
2022/03/30 12:23:04;;;;;;;17.40;8.20;;;13.40;99.90;;;;;;5026669;28;20500;-72
2022/03/30 12:25:37;;;;;;;12.70;7.17;;;13.70;99.90;;;;;;5026951;28;20418;-72
2022/03/30 12:28:04;;;;;;;21.27;8.00;;;13.90;99.90;;;;;;5027028;28;20818;-72
2022/03/30 12:30:32;;;;;;;13.57;8.10;;;13.80;99.90;;;;;;5027205;28;20414;-73
2022/03/30 12:32:59;;;;;;;27.10;9.00;;;13.80;99.90;;;;;;5028177;28;20497;-72
2022/03/30 12:35:35;;;;;;;20.27;7.80;;;13.80;99.90;;;;;;5028288;28;20529;-72
2022/03/30 12:38:13;;;;;;;20.63;7.33;;;13.70;99.90;;;;;;5042632;28;20853;-71
2022/03/30 12:40:43;;;;;;;24.43;7.63;;;13.60;99.90;;;;;;5027284;28;20468;-72
2022/03/30 12:43:10;;;;;;;16.73;8.80;;;13.40;99.90;;;;;;5029029;28;20427;-73
2022/03/30 12:46:03;;;;;;;24.60;8.20;;;13.20;99.90;;;;;;5064010;28;20476;-74
2022/03/30 12:48:34;;;;;;;16.77;7.20;;;13.00;99.90;;;;;;5050997;28;20415;-79
2022/03/30 12:51:02;;;;;;;12.70;8.60;;;12.70;99.90;;;;;;5068380;28;20443;-77
2022/03/30 12:53:36;;;;;;;34.80;9.03;;;12.50;99.90;;;;;;5050879;28;20449;-77